Hlavní strana
METAR-TAF:

METAR-TAF

Letiště :

Turaif, Saúdská Arábie

zeměpisná šířka: 31-41N, zeměpisná délka: 038-44E, výška: 813 m

Aktuální stav počasí

Zpráva byla vytvořena před 1 hodinou a 7 minutami, v 17:00 UTC
Západojihozápadní vítr 8 kt
Teplota 10°C
Vlhkost vzduchu 93%
Tlak 1015 hPa
Viditelnost 10 km a více
Oblačno až skoro zataženo ve výšce 3000 ft

METAR: OETR 181700Z 24008KT 9999 BKN030 10/09 Q1015

Čas: 21:07 (18:07 UTC)

Předpověď počasí

Zpráva byla vytvořena před 7 hodinami a 7 minutami, v 11:00 UTC
Předpověď platná od 18 v 12 UTC do 19 v 18 UTC
Západní vítr 8 kt s nárazy do 18 kt
Viditelnost: 8000 m
Polojasno ve výšce 4000 ft
Dočasný
od 18 v 12 UTC do 18 v 18 UTC
Skoro jasno ve výšce 3500 ft, Cumulonimbus.
Oblačno až skoro zataženo ve výšce 4000 ft
bouřka, déšť

TAF: OETR 181100Z 1812/1918 27008G18KT 8000 SCT040 TEMPO 1812/1818 TSRA FEW035CB BKN040

Stav a předpovědi počasí z více než 4 000 letišť (zprávy METAR a TAF).

Červené a žluté tečky na mapě představují dostupné meteorologické stanice.

Když kurzor umístíte na tečku, zobrazí se název stanice.

Pak kliknutím zobrazíte stav a předpověď počasí.

Chcete-li změnit mapu, kliknutím na zelené tlačítko se znaménkem +mapu přiblížíte, kliknutím na zelené tlačítko se znaménkem – mapu oddálíte a kliknutím na zelené šipky přejdete na sousední mapy.


METAR-TAF: